Time;durP1;ratioP1;P1;durP2;ratioP2;P2;SDS_P1;SDS_P2;PMS_P1;PMS_P2;Temp;Humidity;BMP_temperature;BMP_pressure;BME280_temperature;BME280_humidity;BME280_pressure;Samples;Min_cycle;Max_cycle;Signal;HPM_P1;HPM_P2
2024/02/24 00:01:02;;;;;;;;;2.00;0.75;;;;;;;;5089526;28;11158;-85
2024/02/24 00:03:30;;;;;;;;;1.50;1.00;;;;;;;;5089975;28;11118;-85
2024/02/24 00:06:01;;;;;;;;;0.00;0.00;;;;;;;;5088869;28;11400;-83
2024/02/24 00:08:32;;;;;;;;;0.00;0.00;;;;;;;;5089525;28;11400;-83
2024/02/24 00:10:59;;;;;;;;;0.25;0.25;;;;;;;;5088332;28;12161;-83
2024/02/24 00:13:26;;;;;;;;;0.75;0.75;;;;;;;;5088919;28;11429;-82
2024/02/24 00:15:54;;;;;;;;;0.00;0.00;;;;;;;;5087665;28;11412;-84
2024/02/24 00:18:21;;;;;;;;;0.00;0.00;;;;;;;;5088510;28;11546;-83
2024/02/24 00:20:48;;;;;;;;;0.00;0.00;;;;;;;;5088869;28;11411;-85
2024/02/24 00:23:17;;;;;;;;;0.00;0.00;;;;;;;;5089103;28;11404;-82
2024/02/24 00:25:44;;;;;;;;;0.00;0.00;;;;;;;;5088856;28;11492;-84
2024/02/24 00:28:12;;;;;;;;;0.00;0.00;;;;;;;;5090528;28;11525;-85
2024/02/24 00:30:39;;;;;;;;;1.25;0.00;;;;;;;;5090350;28;11371;-85
2024/02/24 00:33:06;;;;;;;;;0.50;0.00;;;;;;;;5092214;28;11496;-83
2024/02/24 00:35:38;;;;;;;;;1.00;1.00;;;;;;;;5090903;28;11510;-83
2024/02/24 00:38:08;;;;;;;;;0.50;0.50;;;;;;;;5090902;28;11416;-86
2024/02/24 00:40:37;;;;;;;;;0.00;0.00;;;;;;;;5095974;28;11443;-85
2024/02/24 00:43:07;;;;;;;;;0.00;0.00;;;;;;;;5109985;28;11444;-82
2024/02/24 00:45:37;;;;;;;;;1.00;1.00;;;;;;;;5092202;28;11417;-84
2024/02/24 00:48:08;;;;;;;;;0.00;0.00;;;;;;;;5090083;28;11401;-86
2024/02/24 00:50:35;;;;;;;;;0.00;0.00;;;;;;;;5088765;28;11474;-82
2024/02/24 00:53:03;;;;;;;;;0.00;0.00;;;;;;;;5088586;28;11564;-86
2024/02/24 00:55:33;;;;;;;;;0.00;0.00;;;;;;;;5089508;28;11556;-83
2024/02/24 00:58:03;;;;;;;;;0.75;0.75;;;;;;;;5090017;28;11533;-80
2024/02/24 01:00:31;;;;;;;;;0.00;0.00;;;;;;;;5092013;28;11370;-83
2024/02/24 01:02:58;;;;;;;;;0.00;0.00;;;;;;;;5101296;28;11423;-84
2024/02/24 01:05:25;;;;;;;;;1.00;1.00;;;;;;;;5098156;28;11400;-86
2024/02/24 01:07:55;;;;;;;;;2.75;1.00;;;;;;;;5103920;28;11402;-85
2024/02/24 01:10:23;;;;;;;;;0.00;0.00;;;;;;;;5092906;28;11395;-86
2024/02/24 01:12:51;;;;;;;;;0.00;0.00;;;;;;;;5093209;28;12184;-85
2024/02/24 01:15:20;;;;;;;;;0.00;0.00;;;;;;;;5092453;28;11401;-83
2024/02/24 01:17:48;;;;;;;;;2.00;0.50;;;;;;;;5094517;28;11535;-85
2024/02/24 01:20:17;;;;;;;;;2.00;0.50;;;;;;;;5092716;28;11434;-85
2024/02/24 01:22:49;;;;;;;;;0.25;0.25;;;;;;;;5092506;28;11421;-85
2024/02/24 01:25:17;;;;;;;;;0.75;0.75;;;;;;;;5092084;28;11420;-84
2024/02/24 01:27:44;;;;;;;;;1.25;0.00;;;;;;;;5092717;28;11552;-84
2024/02/24 01:30:12;;;;;;;;;2.00;0.00;;;;;;;;5091464;28;12337;-82
2024/02/24 01:32:41;;;;;;;;;1.00;1.00;;;;;;;;5093647;28;11498;-84
2024/02/24 01:35:09;;;;;;;;;2.00;1.00;;;;;;;;5094194;28;11401;-82
2024/02/24 01:37:36;;;;;;;;;1.00;1.00;;;;;;;;5090730;28;11387;-86
2024/02/24 01:40:07;;;;;;;;;0.75;0.75;;;;;;;;5093919;28;11533;-82
2024/02/24 01:42:37;;;;;;;;;0.75;0.75;;;;;;;;5095509;28;11472;-83
2024/02/24 01:45:06;;;;;;;;;0.00;0.00;;;;;;;;5094878;28;11526;-82
2024/02/24 01:47:33;;;;;;;;;3.00;1.00;;;;;;;;5094999;28;11420;-83
2024/02/24 01:50:02;;;;;;;;;2.25;0.75;;;;;;;;5093519;28;11409;-84
2024/02/24 01:52:30;;;;;;;;;1.00;1.00;;;;;;;;5091686;28;11351;-87
2024/02/24 01:55:00;;;;;;;;;1.00;1.00;;;;;;;;5091764;28;11406;-87
2024/02/24 01:57:33;;;;;;;;;0.00;0.00;;;;;;;;5092389;28;12266;-86
2024/02/24 02:00:03;;;;;;;;;1.00;1.00;;;;;;;;5091419;28;11437;-86
2024/02/24 02:02:30;;;;;;;;;1.00;1.00;;;;;;;;5090987;28;11345;-81
2024/02/24 02:05:01;;;;;;;;;2.00;2.00;;;;;;;;5092543;28;11399;-88
2024/02/24 02:07:29;;;;;;;;;2.75;1.00;;;;;;;;5074477;28;11435;-87
2024/02/24 02:09:58;;;;;;;;;1.50;1.50;;;;;;;;5090741;28;11525;-87
2024/02/24 02:12:26;;;;;;;;;1.25;1.25;;;;;;;;5091882;28;11410;-86
2024/02/24 02:14:56;;;;;;;;;1.75;1.75;;;;;;;;5091263;28;11432;-86
2024/02/24 02:17:23;;;;;;;;;1.25;1.25;;;;;;;;5091405;28;11396;-86
2024/02/24 02:19:49;;;;;;;;;1.75;1.75;;;;;;;;5092330;28;11421;-86
2024/02/24 02:22:18;;;;;;;;;4.25;2.75;;;;;;;;5093504;28;11513;-87
2024/02/24 02:24:48;;;;;;;;;1.50;1.50;;;;;;;;5094128;28;11603;-86
2024/02/24 02:27:15;;;;;;;;;1.00;1.00;;;;;;;;5092495;28;11520;-87
2024/02/24 02:29:42;;;;;;;;;8.00;2.00;;;;;;;;5091109;28;11442;-86
2024/02/24 02:32:10;;;;;;;;;7.00;3.00;;;;;;;;5090253;28;11535;-86
2024/02/24 02:34:37;;;;;;;;;1.75;1.75;;;;;;;;5060044;28;11465;-86
2024/02/24 02:37:09;;;;;;;;;2.25;2.00;;;;;;;;5090809;28;11409;-87
2024/02/24 02:39:36;;;;;;;;;1.50;1.50;;;;;;;;5090662;28;11433;-85
2024/02/24 02:42:06;;;;;;;;;1.00;1.00;;;;;;;;5091460;28;11407;-84
2024/02/24 02:44:33;;;;;;;;;1.00;1.00;;;;;;;;5089394;28;11558;-85
2024/02/24 02:47:01;;;;;;;;;4.00;1.75;;;;;;;;5092351;28;11595;-84
2024/02/24 02:49:30;;;;;;;;;1.25;1.25;;;;;;;;5092160;28;11424;-85
2024/02/24 02:52:01;;;;;;;;;1.50;1.50;;;;;;;;5092213;28;11405;-85
2024/02/24 02:54:28;;;;;;;;;2.00;2.00;;;;;;;;5090871;28;12169;-86
2024/02/24 02:56:56;;;;;;;;;1.00;1.00;;;;;;;;5090448;28;11456;-86
2024/02/24 02:59:24;;;;;;;;;1.00;1.00;;;;;;;;5089969;28;11615;-85
2024/02/24 03:01:52;;;;;;;;;0.25;0.25;;;;;;;;5088836;28;11491;-83
2024/02/24 03:04:20;;;;;;;;;0.75;0.75;;;;;;;;5090112;28;11529;-86
2024/02/24 03:06:47;;;;;;;;;2.25;1.75;;;;;;;;5090081;28;11395;-86
2024/02/24 03:09:14;;;;;;;;;1.50;1.25;;;;;;;;5090160;28;11657;-84
2024/02/24 03:11:42;;;;;;;;;4.25;2.75;;;;;;;;5089043;28;11460;-84
2024/02/24 03:14:10;;;;;;;;;1.00;1.00;;;;;;;;5090121;28;11596;-84
2024/02/24 03:16:41;;;;;;;;;1.75;1.75;;;;;;;;5092997;28;11394;-84
2024/02/24 03:19:09;;;;;;;;;1.00;1.00;;;;;;;;5101186;28;11535;-86
2024/02/24 03:21:37;;;;;;;;;1.00;1.00;;;;;;;;5092285;28;11466;-85
2024/02/24 03:24:07;;;;;;;;;2.00;2.00;;;;;;;;5095243;28;11464;-84
2024/02/24 03:26:37;;;;;;;;;5.50;1.25;;;;;;;;5095728;28;11465;-82
2024/02/24 03:29:05;;;;;;;;;1.50;1.00;;;;;;;;5097733;28;11460;-82
2024/02/24 03:31:32;;;;;;;;;2.25;1.00;;;;;;;;5101207;28;11520;-83
2024/02/24 03:34:01;;;;;;;;;1.00;1.00;;;;;;;;5104035;28;11422;-83
2024/02/24 03:36:31;;;;;;;;;2.00;2.00;;;;;;;;5099648;28;11495;-82
2024/02/24 03:38:58;;;;;;;;;3.00;1.25;;;;;;;;5088510;28;11616;-86
2024/02/24 03:41:26;;;;;;;;;1.00;1.00;;;;;;;;5079166;28;11479;-86
2024/02/24 03:43:53;;;;;;;;;2.00;1.00;;;;;;;;5071257;28;11519;-84
2024/02/24 03:46:20;;;;;;;;;1.50;1.50;;;;;;;;5089485;28;11501;-86
2024/02/24 03:48:48;;;;;;;;;1.25;1.25;;;;;;;;5090659;28;11463;-87
2024/02/24 03:51:17;;;;;;;;;0.00;0.00;;;;;;;;5077063;28;11494;-86
2024/02/24 03:53:44;;;;;;;;;1.00;1.00;;;;;;;;5089108;28;11439;-86
2024/02/24 03:56:11;;;;;;;;;1.00;1.00;;;;;;;;5089501;28;11463;-86
2024/02/24 03:58:40;;;;;;;;;1.00;1.00;;;;;;;;5089100;28;11451;-85
2024/02/24 04:01:08;;;;;;;;;2.00;1.00;;;;;;;;5088870;28;11414;-85
2024/02/24 04:03:38;;;;;;;;;2.00;2.00;;;;;;;;5088373;28;11494;-85
2024/02/24 04:06:09;;;;;;;;;1.00;1.00;;;;;;;;5089266;28;11594;-87
2024/02/24 04:08:38;;;;;;;;;1.00;1.00;;;;;;;;5090203;28;11450;-87
2024/02/24 04:11:08;;;;;;;;;3.00;2.00;;;;;;;;5092601;28;11490;-84
2024/02/24 04:13:36;;;;;;;;;1.00;1.00;;;;;;;;5091695;28;11500;-84
2024/02/24 04:16:06;;;;;;;;;1.50;1.00;;;;;;;;5089559;28;11496;-84
2024/02/24 04:18:35;;;;;;;;;2.00;2.00;;;;;;;;5089041;28;11457;-86
2024/02/24 04:21:02;;;;;;;;;1.00;1.00;;;;;;;;5088715;28;11700;-86
2024/02/24 04:23:30;;;;;;;;;1.00;1.00;;;;;;;;5089376;28;11458;-85
2024/02/24 04:26:01;;;;;;;;;1.00;1.00;;;;;;;;5100674;28;11470;-86
2024/02/24 04:28:28;;;;;;;;;1.00;1.00;;;;;;;;5095218;28;11583;-86
2024/02/24 04:30:56;;;;;;;;;2.75;1.00;;;;;;;;5093578;28;11419;-85
2024/02/24 04:33:23;;;;;;;;;1.00;1.00;;;;;;;;5088004;28;11493;-86
2024/02/24 04:35:50;;;;;;;;;0.75;0.75;;;;;;;;5087870;28;12278;-86
2024/02/24 04:38:17;;;;;;;;;1.00;1.00;;;;;;;;5089008;28;11470;-83
2024/02/24 04:40:45;;;;;;;;;0.75;0.75;;;;;;;;5100582;28;11577;-86
2024/02/24 04:43:13;;;;;;;;;1.50;1.50;;;;;;;;5088778;28;11580;-86
2024/02/24 04:45:41;;;;;;;;;1.25;1.25;;;;;;;;5087859;28;11457;-83
2024/02/24 04:48:08;;;;;;;;;1.25;1.25;;;;;;;;5088941;28;11499;-84
2024/02/24 04:50:35;;;;;;;;;5.00;1.00;;;;;;;;5071247;28;11489;-86
2024/02/24 04:53:03;;;;;;;;;0.50;0.50;;;;;;;;5070791;28;11469;-85
2024/02/24 04:55:33;;;;;;;;;0.75;0.75;;;;;;;;5086636;28;11493;-81
2024/02/24 04:58:00;;;;;;;;;1.75;0.00;;;;;;;;5087237;28;11485;-81
2024/02/24 05:00:32;;;;;;;;;0.00;0.00;;;;;;;;5088197;28;11515;-86
2024/02/24 05:02:59;;;;;;;;;1.00;1.00;;;;;;;;5089243;28;11517;-85
2024/02/24 05:05:27;;;;;;;;;1.25;0.75;;;;;;;;5101240;28;11556;-83
2024/02/24 05:07:54;;;;;;;;;1.00;1.00;;;;;;;;5088921;28;11460;-83
2024/02/24 05:10:21;;;;;;;;;1.00;1.00;;;;;;;;5090652;28;11459;-86
2024/02/24 05:12:49;;;;;;;;;0.75;0.75;;;;;;;;5099427;28;11491;-85
2024/02/24 05:15:18;;;;;;;;;1.50;0.50;;;;;;;;5092504;28;11562;-85
2024/02/24 05:17:47;;;;;;;;;1.00;1.00;;;;;;;;5093297;28;11603;-84
2024/02/24 05:20:15;;;;;;;;;2.25;1.00;;;;;;;;5092689;28;11554;-82
2024/02/24 05:22:42;;;;;;;;;0.75;0.75;;;;;;;;5093145;28;11489;-84
2024/02/24 05:25:10;;;;;;;;;1.00;1.00;;;;;;;;5091166;28;11469;-86
2024/02/24 05:27:37;;;;;;;;;1.75;1.00;;;;;;;;5092268;28;11537;-84
2024/02/24 05:30:06;;;;;;;;;1.00;1.00;;;;;;;;5097096;28;11476;-83
2024/02/24 05:32:33;;;;;;;;;0.00;0.00;;;;;;;;5087482;28;12231;-82
2024/02/24 05:35:02;;;;;;;;;0.00;0.00;;;;;;;;5087925;28;11460;-80
2024/02/24 05:37:32;;;;;;;;;1.25;1.25;;;;;;;;5087542;28;11446;-82
2024/02/24 05:40:02;;;;;;;;;1.50;1.50;;;;;;;;5098467;28;11476;-80
2024/02/24 05:42:29;;;;;;;;;2.00;2.00;;;;;;;;5087448;28;11494;-83
2024/02/24 05:44:57;;;;;;;;;2.00;2.00;;;;;;;;5089283;28;11630;-87
2024/02/24 05:47:24;;;;;;;;;2.75;1.00;;;;;;;;5089771;28;11458;-85
2024/02/24 05:49:51;;;;;;;;;1.00;1.00;;;;;;;;5092674;28;11512;-86
2024/02/24 05:52:20;;;;;;;;;1.25;1.25;;;;;;;;5091782;28;11465;-85
2024/02/24 05:54:47;;;;;;;;;0.75;0.75;;;;;;;;5092161;28;11472;-84
2024/02/24 05:57:15;;;;;;;;;1.25;1.25;;;;;;;;5091219;28;12281;-85
2024/02/24 05:59:42;;;;;;;;;0.50;0.25;;;;;;;;5093700;28;11472;-85
2024/02/24 06:02:09;;;;;;;;;1.00;1.00;;;;;;;;5097070;28;11390;-88
2024/02/24 06:04:38;;;;;;;;;1.00;1.00;;;;;;;;5103066;28;11611;-85
2024/02/24 06:07:05;;;;;;;;;1.00;1.00;;;;;;;;5091474;28;11512;-85
2024/02/24 06:09:34;;;;;;;;;1.00;1.00;;;;;;;;5091671;28;11595;-83
2024/02/24 06:12:02;;;;;;;;;1.75;1.75;;;;;;;;5092589;28;11460;-86
2024/02/24 06:14:30;;;;;;;;;1.00;1.00;;;;;;;;5100137;28;12259;-79
2024/02/24 06:16:57;;;;;;;;;1.00;1.00;;;;;;;;5118102;28;11415;-81
2024/02/24 06:19:27;;;;;;;;;1.00;1.00;;;;;;;;5090292;28;11468;-85
2024/02/24 06:21:54;;;;;;;;;1.00;1.00;;;;;;;;5086198;28;11469;-85
2024/02/24 06:24:21;;;;;;;;;0.00;0.00;;;;;;;;5091236;28;11458;-85
2024/02/24 06:26:50;;;;;;;;;1.00;1.00;;;;;;;;5091044;28;11471;-84
2024/02/24 06:29:17;;;;;;;;;1.00;1.00;;;;;;;;5091217;28;11501;-84
2024/02/24 06:31:44;;;;;;;;;2.00;2.00;;;;;;;;5098953;28;11362;-85
2024/02/24 06:34:12;;;;;;;;;1.75;1.75;;;;;;;;5090948;28;11547;-85
2024/02/24 06:36:39;;;;;;;;;2.00;2.00;;;;;;;;5091201;28;11419;-86
2024/02/24 06:39:07;;;;;;;;;1.50;1.50;;;;;;;;5090346;28;11604;-83
2024/02/24 06:41:34;;;;;;;;;1.00;1.00;;;;;;;;5091526;28;11463;-84
2024/02/24 06:44:05;;;;;;;;;4.00;2.00;;;;;;;;5089437;28;11564;-84
2024/02/24 06:46:32;;;;;;;;;2.00;2.00;;;;;;;;5090929;28;11455;-83
2024/02/24 06:48:59;;;;;;;;;3.25;1.75;;;;;;;;5092180;28;11533;-81
2024/02/24 06:51:27;;;;;;;;;1.25;1.25;;;;;;;;5092121;28;11467;-80
2024/02/24 06:53:56;;;;;;;;;6.00;2.00;;;;;;;;5091257;28;11435;-82
2024/02/24 06:56:23;;;;;;;;;1.75;1.75;;;;;;;;5089924;28;11547;-83
2024/02/24 06:58:50;;;;;;;;;3.00;3.00;;;;;;;;5092448;28;11432;-81
2024/02/24 07:01:23;;;;;;;;;3.00;3.00;;;;;;;;5101201;28;11439;-81
2024/02/24 07:03:51;;;;;;;;;5.00;2.75;;;;;;;;5092378;28;12320;-82
2024/02/24 07:06:18;;;;;;;;;1.75;1.75;;;;;;;;5093463;28;11515;-82
2024/02/24 07:08:46;;;;;;;;;1.00;1.00;;;;;;;;5093321;28;11485;-87
2024/02/24 07:11:14;;;;;;;;;1.75;1.75;;;;;;;;5092983;28;11447;-82
2024/02/24 07:13:44;;;;;;;;;0.00;0.00;;;;;;;;5091035;28;12085;-86
2024/02/24 07:16:13;;;;;;;;;4.50;2.50;;;;;;;;5080322;28;11430;-82
2024/02/24 07:18:46;;;;;;;;;3.00;3.00;;;;;;;;5085130;28;11551;-86
2024/02/24 07:21:13;;;;;;;;;5.25;2.00;;;;;;;;5083927;28;11467;-80
2024/02/24 07:23:41;;;;;;;;;1.00;1.00;;;;;;;;5089908;28;11621;-86
2024/02/24 07:26:08;;;;;;;;;1.00;1.00;;;;;;;;5089876;28;11480;-85
2024/02/24 07:28:39;;;;;;;;;2.00;2.00;;;;;;;;5090219;28;11391;-85
2024/02/24 07:31:06;;;;;;;;;2.00;2.00;;;;;;;;5089244;28;11356;-83
2024/02/24 07:33:33;;;;;;;;;3.00;3.00;;;;;;;;5089656;28;11467;-82
2024/02/24 07:36:02;;;;;;;;;2.00;2.00;;;;;;;;5089643;28;11457;-81
2024/02/24 07:38:34;;;;;;;;;1.00;1.00;;;;;;;;5091090;28;11462;-91
2024/02/24 07:41:02;;;;;;;;;3.00;1.75;;;;;;;;5090543;28;11552;-91
2024/02/24 07:43:34;;;;;;;;;3.00;3.00;;;;;;;;5091966;28;11490;-82
2024/02/24 07:46:01;;;;;;;;;2.00;2.00;;;;;;;;5091046;28;11534;-82
2024/02/24 07:48:29;;;;;;;;;3.50;3.50;;;;;;;;5090593;28;11503;-87
2024/02/24 07:50:56;;;;;;;;;5.75;5.75;;;;;;;;5092753;28;11487;-88
2024/02/24 07:56:13;;;;;;;;;5.00;2.00;;;;;;;;5072387;28;11560;-83
2024/02/24 07:58:40;;;;;;;;;2.00;2.00;;;;;;;;5073530;28;11472;-87
2024/02/24 08:01:08;;;;;;;;;6.25;4.50;;;;;;;;5089004;28;11372;-85
2024/02/24 08:03:37;;;;;;;;;3.50;3.50;;;;;;;;5088840;28;11460;-84
2024/02/24 08:06:07;;;;;;;;;3.00;3.00;;;;;;;;5079890;28;11419;-83
2024/02/24 08:08:37;;;;;;;;;3.00;2.00;;;;;;;;5088491;28;11397;-85
2024/02/24 08:11:04;;;;;;;;;2.50;2.50;;;;;;;;5089567;28;11496;-80
2024/02/24 08:13:41;;;;;;;;;3.00;3.00;;;;;;;;5088300;28;11502;-87
2024/02/24 08:16:12;;;;;;;;;3.00;3.00;;;;;;;;5089180;28;11420;-83
2024/02/24 08:18:40;;;;;;;;;2.00;2.00;;;;;;;;5088896;28;11514;-86
2024/02/24 08:21:08;;;;;;;;;3.00;3.00;;;;;;;;5088826;28;11419;-84
2024/02/24 08:23:37;;;;;;;;;5.00;2.50;;;;;;;;5087979;28;11381;-83
2024/02/24 08:26:06;;;;;;;;;0.75;0.75;;;;;;;;5089018;28;11435;-87
2024/02/24 08:28:34;;;;;;;;;2.00;2.00;;;;;;;;5088343;28;11402;-87
2024/02/24 08:31:01;;;;;;;;;1.50;1.50;;;;;;;;5088253;28;11368;-81
2024/02/24 08:33:29;;;;;;;;;2.75;2.75;;;;;;;;5088882;28;11542;-83
2024/02/24 08:35:56;;;;;;;;;2.25;2.25;;;;;;;;5088856;28;11474;-87
2024/02/24 08:38:23;;;;;;;;;3.00;3.00;;;;;;;;5090683;28;11438;-86
2024/02/24 08:40:52;;;;;;;;;2.00;2.00;;;;;;;;5088768;28;11549;-85
2024/02/24 08:43:19;;;;;;;;;3.00;3.00;;;;;;;;5078166;28;11440;-82
2024/02/24 08:45:47;;;;;;;;;2.00;1.00;;;;;;;;5088916;28;11535;-84
2024/02/24 08:48:14;;;;;;;;;1.50;0.50;;;;;;;;5089061;28;11400;-83
2024/02/24 08:50:41;;;;;;;;;4.00;2.00;;;;;;;;5088237;28;11429;-87
2024/02/24 08:53:09;;;;;;;;;1.50;1.50;;;;;;;;5090214;28;11431;-82
2024/02/24 08:55:36;;;;;;;;;7.25;3.25;;;;;;;;5091320;28;11449;-85
2024/02/24 08:58:08;;;;;;;;;1.75;1.75;;;;;;;;5093314;28;11505;-85
2024/02/24 09:00:36;;;;;;;;;2.25;2.25;;;;;;;;5078537;28;11426;-81
2024/02/24 09:03:09;;;;;;;;;1.75;1.75;;;;;;;;5089703;28;11428;-83
2024/02/24 09:05:37;;;;;;;;;2.25;2.00;;;;;;;;5093893;28;11532;-80
2024/02/24 09:08:07;;;;;;;;;2.25;2.25;;;;;;;;5095418;28;11489;-84
2024/02/24 09:10:35;;;;;;;;;2.75;2.00;;;;;;;;5090171;28;11416;-86
2024/02/24 09:13:08;;;;;;;;;1.00;1.00;;;;;;;;5089050;28;11225;-87
2024/02/24 09:15:38;;;;;;;;;1.00;1.00;;;;;;;;5089176;28;11315;-85
2024/02/24 09:18:07;;;;;;;;;3.25;2.25;;;;;;;;5089250;28;11899;-83
2024/02/24 09:20:37;;;;;;;;;2.75;1.75;;;;;;;;5092942;28;11519;-82
2024/02/24 09:23:06;;;;;;;;;2.25;2.25;;;;;;;;5091945;28;11248;-79
2024/02/24 09:25:34;;;;;;;;;1.50;1.50;;;;;;;;5092390;28;11428;-84
2024/02/24 09:28:01;;;;;;;;;3.75;3.00;;;;;;;;5091995;28;11388;-87
2024/02/24 09:30:30;;;;;;;;;3.00;3.00;;;;;;;;5091691;28;11375;-83
2024/02/24 09:32:57;;;;;;;;;2.00;2.00;;;;;;;;5092238;28;11409;-87
2024/02/24 09:35:24;;;;;;;;;2.00;2.00;;;;;;;;5091410;28;11323;-85
2024/02/24 09:37:52;;;;;;;;;2.25;2.00;;;;;;;;5092612;28;11043;-88
2024/02/24 09:40:19;;;;;;;;;2.00;2.00;;;;;;;;5094965;28;11246;-82
2024/02/24 09:42:49;;;;;;;;;1.50;1.50;;;;;;;;5095121;28;10910;-83
2024/02/24 09:45:16;;;;;;;;;1.00;1.00;;;;;;;;5092894;28;11103;-85
2024/02/24 09:47:46;;;;;;;;;2.00;2.00;;;;;;;;5092241;28;11862;-86
2024/02/24 09:50:13;;;;;;;;;3.00;2.00;;;;;;;;5091861;28;10956;-86
2024/02/24 09:52:41;;;;;;;;;4.00;2.00;;;;;;;;5092081;28;11026;-86
2024/02/24 09:55:10;;;;;;;;;1.75;1.75;;;;;;;;5091790;28;11169;-84
2024/02/24 09:57:38;;;;;;;;;1.75;1.75;;;;;;;;5091293;28;11158;-88
2024/02/24 10:00:07;;;;;;;;;2.00;2.00;;;;;;;;5091663;28;11181;-86
2024/02/24 10:02:37;;;;;;;;;1.00;1.00;;;;;;;;5091473;28;11853;-83
2024/02/24 10:05:06;;;;;;;;;2.50;2.50;;;;;;;;5091459;28;11206;-87
2024/02/24 10:07:35;;;;;;;;;3.00;3.00;;;;;;;;5079817;28;11044;-87
2024/02/24 10:10:03;;;;;;;;;2.00;2.00;;;;;;;;5091145;28;11052;-87
2024/02/24 10:12:30;;;;;;;;;2.00;2.00;;;;;;;;5091703;28;10957;-80
2024/02/24 10:15:00;;;;;;;;;2.00;2.00;;;;;;;;5090135;28;11593;-83
2024/02/24 10:17:32;;;;;;;;;2.50;2.50;;;;;;;;5091967;28;10754;-82
2024/02/24 10:20:02;;;;;;;;;1.75;1.75;;;;;;;;5090973;28;10979;-85
2024/02/24 10:22:30;;;;;;;;;1.00;1.00;;;;;;;;5092228;28;10718;-86
2024/02/24 10:25:02;;;;;;;;;2.00;2.00;;;;;;;;5090977;28;10668;-80
2024/02/24 10:27:30;;;;;;;;;1.25;1.00;;;;;;;;5091756;28;10715;-81
2024/02/24 10:30:02;;;;;;;;;1.00;1.00;;;;;;;;5090239;28;10595;-84
2024/02/24 10:32:30;;;;;;;;;0.25;0.00;;;;;;;;5090589;28;10774;-82
2024/02/24 10:34:57;;;;;;;;;1.50;1.50;;;;;;;;5090617;28;10667;-82
2024/02/24 10:37:26;;;;;;;;;2.00;2.00;;;;;;;;5091077;28;10661;-82
2024/02/24 10:39:55;;;;;;;;;2.25;2.25;;;;;;;;5091529;28;10532;-81
2024/02/24 10:42:26;;;;;;;;;3.25;3.00;;;;;;;;5092418;28;11319;-83
2024/02/24 10:44:53;;;;;;;;;2.00;2.00;;;;;;;;5092392;28;10534;-83
2024/02/24 10:47:21;;;;;;;;;1.25;1.25;;;;;;;;5093040;28;10598;-85
2024/02/24 10:49:48;;;;;;;;;2.75;2.75;;;;;;;;5093717;28;10842;-82
2024/02/24 10:52:15;;;;;;;;;2.00;2.00;;;;;;;;5092792;28;10797;-79
2024/02/24 10:54:43;;;;;;;;;2.00;2.00;;;;;;;;5094183;28;10647;-80
2024/02/24 10:57:12;;;;;;;;;2.00;2.00;;;;;;;;5094811;28;10607;-87
2024/02/24 10:59:39;;;;;;;;;1.00;1.00;;;;;;;;5091031;28;10600;-89
2024/02/24 11:02:08;;;;;;;;;2.50;1.25;;;;;;;;5080666;28;10627;-85
2024/02/24 11:04:40;;;;;;;;;6.00;3.00;;;;;;;;5090853;28;10613;-85
2024/02/24 11:07:08;;;;;;;;;2.00;2.00;;;;;;;;5090850;28;10698;-81
2024/02/24 11:09:36;;;;;;;;;1.00;1.00;;;;;;;;5091034;28;10505;-84
2024/02/24 11:12:12;;;;;;;;;2.00;2.00;;;;;;;;5090303;28;10514;-86
2024/02/24 11:14:40;;;;;;;;;3.00;3.00;;;;;;;;5090109;28;10321;-88
2024/02/24 11:17:07;;;;;;;;;2.00;2.00;;;;;;;;5089616;28;10383;-86
2024/02/24 11:19:41;;;;;;;;;6.00;4.00;;;;;;;;5088298;28;10444;-87
2024/02/24 11:22:11;;;;;;;;;2.25;2.25;;;;;;;;5093766;28;10528;-84
2024/02/24 11:24:39;;;;;;;;;4.00;3.00;;;;;;;;5093993;28;10537;-84
2024/02/24 11:27:06;;;;;;;;;1.00;1.00;;;;;;;;5090847;28;10410;-87
2024/02/24 11:29:38;;;;;;;;;3.00;2.00;;;;;;;;5092454;28;10402;-87
2024/02/24 11:32:12;;;;;;;;;2.00;1.25;;;;;;;;5093261;28;10123;-78
2024/02/24 11:34:43;;;;;;;;;2.00;2.00;;;;;;;;5091664;28;10206;-88
2024/02/24 11:37:11;;;;;;;;;3.50;2.00;;;;;;;;5091039;28;9946;-88
2024/02/24 11:39:41;;;;;;;;;1.00;1.00;;;;;;;;5098047;28;9926;-84
2024/02/24 11:42:12;;;;;;;;;4.25;1.75;;;;;;;;5089138;28;9843;-85
2024/02/24 11:44:44;;;;;;;;;1.75;1.75;;;;;;;;5090549;28;9853;-86
2024/02/24 11:47:11;;;;;;;;;2.00;2.00;;;;;;;;5089725;28;10674;-86
2024/02/24 11:49:45;;;;;;;;;2.50;2.50;;;;;;;;5089876;28;9924;-87
2024/02/24 11:52:13;;;;;;;;;2.00;2.00;;;;;;;;5089539;28;10000;-87
2024/02/24 11:54:40;;;;;;;;;2.25;2.25;;;;;;;;5089676;28;9978;-87
2024/02/24 11:57:08;;;;;;;;;2.00;2.00;;;;;;;;5089638;28;9984;-87
2024/02/24 11:59:38;;;;;;;;;1.75;1.50;;;;;;;;5089359;28;9746;-81
2024/02/24 12:02:10;;;;;;;;;5.50;2.00;;;;;;;;5102053;28;9558;-84
2024/02/24 12:04:37;;;;;;;;;2.00;2.00;;;;;;;;5089037;28;9688;-82
2024/02/24 12:07:05;;;;;;;;;1.00;1.00;;;;;;;;5088944;28;9545;-85
2024/02/24 12:09:32;;;;;;;;;1.00;1.00;;;;;;;;5089737;28;9580;-80
2024/02/24 12:12:01;;;;;;;;;2.00;2.00;;;;;;;;5089753;28;9476;-84
2024/02/24 12:14:30;;;;;;;;;0.00;0.00;;;;;;;;5090434;28;9575;-84
2024/02/24 12:16:58;;;;;;;;;1.25;1.25;;;;;;;;5090272;28;9440;-88
2024/02/24 12:19:27;;;;;;;;;1.75;1.75;;;;;;;;5089892;28;9492;-85
2024/02/24 12:21:56;;;;;;;;;0.33;0.33;;;;;;;;5089160;28;9561;-83
2024/02/24 12:24:37;;;;;;;;;3.00;3.00;;;;;;;;5088755;28;9395;-82
2024/02/24 12:27:08;;;;;;;;;4.75;3.75;;;;;;;;5079317;28;9757;-86
2024/02/24 12:29:36;;;;;;;;;3.00;3.00;;;;;;;;5089232;28;9539;-82
2024/02/24 12:32:03;;;;;;;;;2.75;2.25;;;;;;;;5089891;28;9430;-83
2024/02/24 12:34:33;;;;;;;;;5.33;2.00;;;;;;;;5091200;28;9490;-79
2024/02/24 12:37:00;;;;;;;;;3.33;2.00;;;;;;;;5092385;28;9513;-79
2024/02/24 12:39:31;;;;;;;;;1.00;1.00;;;;;;;;5091488;28;9468;-80
2024/02/24 12:42:01;;;;;;;;;0.75;0.75;;;;;;;;5091486;28;9575;-85
2024/02/24 12:44:31;;;;;;;;;1.00;1.00;;;;;;;;5091543;28;9475;-86
2024/02/24 12:47:00;;;;;;;;;1.25;1.25;;;;;;;;5103993;28;9599;-87
2024/02/24 12:49:34;;;;;;;;;3.75;2.75;;;;;;;;5089612;28;9544;-88
2024/02/24 12:52:03;;;;;;;;;1.00;1.00;;;;;;;;5088262;28;9540;-80
2024/02/24 12:54:36;;;;;;;;;1.00;1.00;;;;;;;;5090710;28;9536;-80
2024/02/24 12:57:05;;;;;;;;;1.00;1.00;;;;;;;;5092669;28;9787;-87
2024/02/24 12:59:32;;;;;;;;;2.25;1.00;;;;;;;;5093274;28;9826;-89
2024/02/24 13:02:02;;;;;;;;;2.50;2.50;;;;;;;;5091180;28;9650;-84
2024/02/24 13:04:32;;;;;;;;;2.00;2.00;;;;;;;;5092975;28;9787;-88
2024/02/24 13:06:59;;;;;;;;;1.00;1.00;;;;;;;;5092548;28;9602;-87
2024/02/24 13:09:31;;;;;;;;;2.75;2.75;;;;;;;;5092990;28;9691;-88
2024/02/24 13:12:01;;;;;;;;;5.00;2.00;;;;;;;;5092604;28;9644;-85
2024/02/24 13:14:32;;;;;;;;;1.00;1.00;;;;;;;;5104707;28;9569;-88
2024/02/24 13:16:59;;;;;;;;;1.75;1.75;;;;;;;;5095230;28;9475;-84
2024/02/24 13:19:27;;;;;;;;;2.50;0.00;;;;;;;;5096252;28;9603;-87
2024/02/24 13:21:54;;;;;;;;;0.00;0.00;;;;;;;;5096215;28;9483;-86
2024/02/24 13:24:21;;;;;;;;;2.00;1.00;;;;;;;;5094595;28;9346;-89
2024/02/24 13:26:50;;;;;;;;;2.00;2.00;;;;;;;;5092494;28;9551;-87
2024/02/24 13:29:17;;;;;;;;;1.25;1.25;;;;;;;;5092611;28;9608;-87
2024/02/24 13:31:45;;;;;;;;;2.00;2.00;;;;;;;;5091316;28;9885;-85
2024/02/24 13:34:12;;;;;;;;;2.75;1.50;;;;;;;;5092140;28;9700;-85
2024/02/24 13:36:42;;;;;;;;;1.25;1.25;;;;;;;;5091435;28;9770;-83
2024/02/24 13:39:10;;;;;;;;;1.00;1.00;;;;;;;;5091846;28;10599;-88
2024/02/24 13:41:37;;;;;;;;;1.00;1.00;;;;;;;;5091590;28;9778;-85
2024/02/24 13:44:12;;;;;;;;;1.75;1.75;;;;;;;;5089280;28;9777;-88
2024/02/24 13:46:39;;;;;;;;;0.25;0.00;;;;;;;;5091935;28;9757;-86
2024/02/24 13:49:09;;;;;;;;;1.25;1.25;;;;;;;;5091115;28;9865;-83
2024/02/24 13:51:37;;;;;;;;;2.00;1.00;;;;;;;;5091875;28;9899;-84
2024/02/24 13:54:07;;;;;;;;;0.75;0.75;;;;;;;;5090728;28;9906;-87
2024/02/24 13:56:39;;;;;;;;;4.50;1.00;;;;;;;;5100092;28;9919;-82
2024/02/24 13:59:08;;;;;;;;;1.00;1.00;;;;;;;;5099247;28;9918;-88
2024/02/24 14:01:37;;;;;;;;;5.00;3.00;;;;;;;;5102333;28;9949;-88
2024/02/24 14:04:06;;;;;;;;;2.50;2.50;;;;;;;;5098865;28;10112;-83
2024/02/24 14:06:34;;;;;;;;;1.75;1.75;;;;;;;;5091006;28;10183;-81
2024/02/24 14:09:06;;;;;;;;;2.75;2.00;;;;;;;;5098910;28;10036;-82
2024/02/24 14:11:35;;;;;;;;;2.00;2.00;;;;;;;;5075547;28;9934;-79
2024/02/24 14:14:05;;;;;;;;;4.75;1.25;;;;;;;;5080189;28;9843;-82
2024/02/24 14:16:34;;;;;;;;;2.00;2.00;;;;;;;;5092426;28;9934;-85
2024/02/24 14:19:01;;;;;;;;;1.50;1.50;;;;;;;;5098582;28;9956;-79
2024/02/24 14:21:28;;;;;;;;;1.00;1.00;;;;;;;;5100128;28;9888;-82
2024/02/24 14:23:56;;;;;;;;;3.25;2.00;;;;;;;;5095144;28;9822;-80
2024/02/24 14:26:23;;;;;;;;;1.00;1.00;;;;;;;;5096010;28;10026;-83
2024/02/24 14:28:53;;;;;;;;;1.00;1.00;;;;;;;;5095692;28;10022;-81
2024/02/24 14:31:20;;;;;;;;;3.25;2.00;;;;;;;;5096223;28;10490;-80
2024/02/24 14:33:52;;;;;;;;;2.50;2.00;;;;;;;;5099016;28;10056;-78
2024/02/24 14:36:19;;;;;;;;;1.25;1.00;;;;;;;;5097703;28;10109;-86
2024/02/24 14:38:47;;;;;;;;;2.00;2.00;;;;;;;;5092961;28;9878;-87
2024/02/24 14:41:15;;;;;;;;;2.00;2.00;;;;;;;;5090958;28;10022;-89
2024/02/24 14:43:42;;;;;;;;;1.00;1.00;;;;;;;;5090898;28;9837;-87
2024/02/24 14:46:10;;;;;;;;;1.00;1.00;;;;;;;;5090180;28;9754;-84
2024/02/24 14:48:37;;;;;;;;;2.00;2.00;;;;;;;;5090596;28;9951;-82
2024/02/24 14:51:08;;;;;;;;;3.00;3.00;;;;;;;;5090475;28;9932;-85
2024/02/24 14:53:38;;;;;;;;;2.00;2.00;;;;;;;;5090234;28;9938;-86
2024/02/24 14:56:08;;;;;;;;;0.00;0.00;;;;;;;;5103140;28;9926;-86